NCAR-RAP Real-Time Weather Data

Output produced by METARs form (08 May 2021  16:14 UTC)
found at http://weather.rap.ucar.edu/surface/
 
KFAR 081553Z 14007KT 10SM CLR 13/M04 A3008 RMK AO2 SLP193 T01281044
KFAR 081453Z 11003KT 10SM CLR 12/M03 A3009 RMK AO2 SLP195 T01171028 58002
KFAR 081353Z 09004KT 10SM CLR 08/M03 A3010 RMK AO2 SLP197 T00831028
KFAR 081253Z AUTO 04005KT 10SM CLR 06/M04 A3010 RMK AO2 SLP197 T00561039
KFAR 081153Z AUTO 00000KT 10SM CLR 02/M03 A3010 RMK AO2 SLP199 T00221033 10056 20006 55000
KFAR 081053Z AUTO 11004KT 10SM CLR 03/M05 A3009 RMK AO2 SLP197 T00281050
KFAR 080953Z AUTO 10005KT 10SM CLR 02/M06 A3009 RMK AO2 SLP197 T00221056
KFAR 080853Z AUTO 11004KT 10SM CLR 03/M06 A3010 RMK AO2 SLP199 T00331056 58006
KFAR 080753Z AUTO 11006KT 10SM CLR 04/M06 A3011 RMK AO2 SLP204 T00441061
KFAR 080653Z AUTO 10005KT 10SM CLR 05/M06 A3012 RMK AO2 SLP207 T00501061
KFAR 080553Z AUTO 10006KT 10SM CLR 04/M08 A3012 RMK AO2 SLP205 T00441078 10139 20044 401501028 51008
KFAR 080453Z AUTO 09007KT 10SM CLR 06/M07 A3011 RMK AO2 SLP203 T00611072
KFAR 080353Z AUTO 07007KT 10SM CLR 06/M07 A3011 RMK AO2 SLP203 T00611067
KFAR 080253Z AUTO 05005KT 10SM CLR 08/M07 A3009 RMK AO2 SLP197 T00831072 53002
KFAR 080153Z AUTO 03006KT 10SM CLR 10/M07 A3008 RMK AO2 SLP194 T01001067
KFAR 080053Z AUTO 04007KT 10SM CLR 13/M07 A3008 RMK AO2 SLP193 T01281072
KFAR 072353Z AUTO 04008KT 10SM CLR 14/M06 A3009 RMK AO2 SLP196 T01391061 10150 20111 56014
KFAR 072253Z AUTO 03007KT 10SM CLR 14/M07 A3010 RMK AO2 SLP200 T01391067
KFAR 072153Z 03008KT 10SM CLR 14/M06 A3012 RMK AO2 SLP206 T01441056
KFAR 072053Z 10SM CLR 13/M05 A3013 RMK AO2 SLP211 T01331050 56023
KFAR 071953Z 10SM CLR 13/M05 A3015 RMK AO2 PK WND 04027/1915 SLP217 T01281050
KFAR 071853Z 34012G20KT 10SM CLR 13/M05 A3017 RMK AO2 SLP222 T01281050
KFAR 071753Z 04013G22KT 10SM CLR 12/M04 A3020 RMK AO2 PK WND 36026/1709 SLP234 T01171044 10117 21011 58012
KFAR 071653Z 02010G22KT 10SM CLR 10/M05 A3022 RMK AO2 SLP240 T01001050
KFAR 071553Z 36015G20KT 10SM FEW050 09/M04 A3023 RMK AO2 SLP245 T00941044
KFAR 071453Z 01013G18KT 10SM CLR 08/M03 A3024 RMK AO2 SLP247 T00781033 50003
KFAR 071353Z 35009KT 10SM CLR 06/M03 A3025 RMK AO2 SLP251 T00561028
KFAR 071253Z 36008KT 10SM CLR 02/M04 A3024 RMK AO2 SLPNO T00221044 $
KFAR 071153Z 33008KT 10SM CLR M01/M06 A3023 RMK AO2 SLPNO T10111061 10039 21028 52014
KFAR 071053Z 35008KT 10SM CLR M02/M07 A3021 RMK AO2 SLPNO T10221067
KFAR 070953Z 34011KT 10SM CLR M01/M07 A3021 RMK AO2 SLPNO T10061067
KFAR 070853Z 34010KT 10SM CLR M01/M07 A3019 RMK AO2 SLP230 T10061072 52011
KFAR 070753Z 34009KT 10SM CLR 01/M08 A3018 RMK AO2 SLP225 T00061078
KFAR 070653Z 36012KT 10SM CLR 03/M07 A3017 RMK AO2 SLP221 T00331072
KFAR 070553Z 01010KT 10SM CLR 03/M08 A3016 RMK AO2 SLP217 T00331078 401831022 51011
KFAR 070453Z 02012KT 10SM CLR 07/M07 A3014 RMK AO2 SLP212 T00721072
KFAR 070353Z 01016G24KT 10SM CLR 08/M08 A3014 RMK AO2 PK WND 36027/0318 SLP208 T00831083
KFAR 070253Z 01017KT 10SM CLR 10/M09 A3012 RMK AO2 SLP205 T01001089 51032
KFAR 070153Z AUTO 36015KT 10SM CLR 11/M06 A3010 RMK AO2 PK WND 02028/0115 SLP197 T01111056
KFAR 070124Z 02014G26KT 10SM SKC 12/M04 A3009
KFAR 070053Z AUTO A3007 RMK AO2 SLPNO PWINO FZRANO $
KFAR 062353Z AUTO A3002 RMK AO2 SLPNO 55002 PWINO FZRANO $
KFAR 062340Z 10SM SKC A3001
KFAR 062253Z AUTO A3001 RMK AO2 SLPNO PWINO FZRANO $
KFAR 062153Z A3002 RMK AO2 PK WND 28030/2102 SLPNO $
KFAR 062053Z 26018G27KT 10SM SCT110 17/M04 A3003 RMK AO2 PK WND 27036/2026 SLP175 T01721039 58031
KFAR 061953Z 30015G25KT 10SM FEW080 SCT100 17/M05 A3008 RMK AO2 PK WND 27034/1939 SLP190 T01671050
KFAR 061853Z 30019G29KT 10SM BKN100 17/M06 A3011 RMK AO2 PK WND 30029/1849 SLP200 T01671061
KFAR 061753Z 29015G23KT 240V320 10SM CLR 17/M06 A3013 RMK AO2 SLP208 T01721056 10172 21011 58025
KFAR 061653Z 29008G20KT 10SM CLR 16/M06 A3016 RMK AO2 SLP217 T01611056